Time;durP1;ratioP1;P1;durP2;ratioP2;P2;SDS_P1;SDS_P2;PMS_P1;PMS_P2;Temp;Humidity;BMP_temperature;BMP_pressure;BME280_temperature;BME280_humidity;BME280_pressure;Samples;Min_cycle;Max_cycle;Signal;HPM_P1;HPM_P2
2023/10/21 00:02:23;;;;;;;2.80;1.53;;;;;;;;;;5073957;28;20423;-79
2023/10/21 00:04:49;;;;;;;4.90;1.77;;;;;;;;;;5074178;28;20418;-78
2023/10/21 00:07:15;;;;;;;5.00;2.57;;;;;;;;;;5073828;28;20493;-79
2023/10/21 00:09:41;;;;;;;4.50;2.23;;;;;;;;;;5057102;28;20419;-82
2023/10/21 00:12:08;;;;;;;4.27;1.17;;;;;;;;;;5074143;28;20423;-79
2023/10/21 00:14:34;;;;;;;4.70;1.87;;;;;;;;;;5073614;28;20757;-78
2023/10/21 00:17:00;;;;;;;3.07;1.70;;;;;;;;;;5072716;28;20479;-83
2023/10/21 00:19:26;;;;;;;4.17;2.17;;;;;;;;;;5066352;28;20428;-79
2023/10/21 00:21:53;;;;;;;5.40;1.97;;;;;;;;;;5064466;28;20927;-78
2023/10/21 00:24:19;;;;;;;4.47;2.30;;;;;;;;;;5073981;28;20190;-79
2023/10/21 00:26:49;;;;;;;3.40;2.03;;;;;;;;;;5073747;28;20508;-78
2023/10/21 00:29:15;;;;;;;4.87;2.20;;;;;;;;;;5073580;28;20411;-80
2023/10/21 00:31:42;;;;;;;4.63;1.80;;;;;;;;;;5073577;28;20486;-80
2023/10/21 00:34:08;;;;;;;3.00;1.40;;;;;;;;;;5073648;28;20408;-80
2023/10/21 00:36:33;;;;;;;4.47;2.00;;;;;;;;;;5072533;28;20503;-80
2023/10/21 00:38:59;;;;;;;6.30;2.47;;;;;;;;;;5073115;28;20433;-81
2023/10/21 00:41:25;;;;;;;4.57;2.00;;;;;;;;;;5073567;28;20408;-80
2023/10/21 00:43:51;;;;;;;4.33;2.20;;;;;;;;;;5073574;28;20673;-83
2023/10/21 00:46:18;;;;;;;5.43;3.17;;;;;;;;;;5073602;28;20500;-80
2023/10/21 00:48:45;;;;;;;7.30;3.80;;;;;;;;;;5055501;28;20716;-81
2023/10/21 00:51:11;;;;;;;8.60;3.17;;;;;;;;;;5073223;28;20806;-82
2023/10/21 00:53:38;;;;;;;10.90;3.97;;;;;;;;;;5073064;28;20487;-81
2023/10/21 00:56:05;;;;;;;8.30;4.40;;;;;;;;;;5073238;28;20470;-80
2023/10/21 00:58:31;;;;;;;8.57;3.97;;;;;;;;;;5073327;28;20413;-81
2023/10/21 01:00:58;;;;;;;8.67;4.10;;;;;;;;;;5073090;28;20399;-80
2023/10/21 01:03:26;;;;;;;10.60;4.07;;;;;;;;;;5073288;28;20442;-81
2023/10/21 01:05:52;;;;;;;9.37;4.10;;;;;;;;;;5073264;28;20900;-82
2023/10/21 01:08:18;;;;;;;8.40;5.43;;;;;;;;;;5072815;28;20410;-81
2023/10/21 01:10:44;;;;;;;8.70;6.13;;;;;;;;;;5073189;28;20766;-79
2023/10/21 01:13:10;;;;;;;10.40;5.80;;;;;;;;;;5072989;28;20504;-80
2023/10/21 01:15:36;;;;;;;9.50;5.10;;;;;;;;;;5072884;28;20979;-80
2023/10/21 01:18:06;;;;;;;11.60;6.57;;;;;;;;;;5073148;28;20426;-80
2023/10/21 01:20:32;;;;;;;11.30;4.93;;;;;;;;;;5072931;28;20418;-79
2023/10/21 01:22:59;;;;;;;12.63;4.80;;;;;;;;;;5072609;28;20977;-80
2023/10/21 01:25:25;;;;;;;9.17;4.87;;;;;;;;;;5055071;28;20504;-78
2023/10/21 01:27:55;;;;;;;10.70;4.90;;;;;;;;;;5072148;28;20986;-80
2023/10/21 01:30:21;;;;;;;11.60;6.47;;;;;;;;;;5072922;28;20603;-80
2023/10/21 01:32:48;;;;;;;10.73;5.03;;;;;;;;;;5072858;28;20419;-80
2023/10/21 01:35:17;;;;;;;14.97;6.70;;;;;;;;;;5073057;28;21051;-81
2023/10/21 01:37:43;;;;;;;10.53;6.63;;;;;;;;;;5072401;28;20820;-79
2023/10/21 01:40:10;;;;;;;12.37;5.63;;;;;;;;;;5072766;28;20405;-82
2023/10/21 01:42:36;;;;;;;9.67;4.67;;;;;;;;;;5072799;28;20822;-81
2023/10/21 01:45:04;;;;;;;9.57;5.73;;;;;;;;;;5072632;28;20417;-81
2023/10/21 01:47:30;;;;;;;10.57;5.80;;;;;;;;;;5072626;28;20469;-81
2023/10/21 01:49:57;;;;;;;10.93;6.27;;;;;;;;;;5072678;28;20404;-81
2023/10/21 01:52:23;;;;;;;14.67;6.73;;;;;;;;;;5054399;28;20428;-80
2023/10/21 01:54:49;;;;;;;10.90;5.80;;;;;;;;;;5072521;28;20405;-80
2023/10/21 01:57:15;;;;;;;12.80;6.47;;;;;;;;;;5072585;28;20980;-80
2023/10/21 01:59:41;;;;;;;9.90;5.47;;;;;;;;;;5072611;28;20409;-81
2023/10/21 02:02:07;;;;;;;11.40;6.47;;;;;;;;;;5072602;28;20427;-77
2023/10/21 02:04:34;;;;;;;13.90;7.60;;;;;;;;;;5072619;28;20403;-79
2023/10/21 02:07:00;;;;;;;12.50;7.30;;;;;;;;;;5072127;28;21612;-80
2023/10/21 02:09:25;;;;;;;12.57;6.20;;;;;;;;;;5072494;28;20421;-82
2023/10/21 02:11:55;;;;;;;11.50;7.40;;;;;;;;;;5072508;28;20419;-80
2023/10/21 02:14:23;;;;;;;13.50;6.37;;;;;;;;;;5054574;28;20422;-81
2023/10/21 02:16:50;;;;;;;13.00;7.43;;;;;;;;;;5072278;28;20946;-79
2023/10/21 02:19:16;;;;;;;10.23;6.37;;;;;;;;;;5054401;28;20420;-78
2023/10/21 02:21:42;;;;;;;10.27;6.10;;;;;;;;;;5072046;28;20421;-79
2023/10/21 02:24:08;;;;;;;12.37;7.07;;;;;;;;;;5072411;28;20828;-79
2023/10/21 02:26:34;;;;;;;12.63;7.47;;;;;;;;;;5072332;28;20793;-80
2023/10/21 02:29:00;;;;;;;12.00;7.20;;;;;;;;;;5072301;28;20405;-82
2023/10/21 02:31:26;;;;;;;11.87;7.30;;;;;;;;;;5054248;28;20431;-80
2023/10/21 02:33:53;;;;;;;15.63;7.77;;;;;;;;;;5072275;28;20412;-80
2023/10/21 02:36:18;;;;;;;10.07;6.27;;;;;;;;;;5072205;28;20473;-80
2023/10/21 02:38:45;;;;;;;11.00;6.10;;;;;;;;;;5072334;28;20423;-78
2023/10/21 02:41:11;;;;;;;17.73;6.63;;;;;;;;;;5075659;28;20932;-82
2023/10/21 02:43:37;;;;;;;12.53;6.00;;;;;;;;;;5075813;28;20426;-79
2023/10/21 02:46:10;;;;;;;15.17;7.47;;;;;;;;;;5075793;28;20775;-78
2023/10/21 02:48:36;;;;;;;14.10;7.57;;;;;;;;;;5075711;28;20594;-82
2023/10/21 02:51:09;;;;;;;20.03;8.87;;;;;;;;;;5075610;28;20431;-83
2023/10/21 02:53:36;;;;;;;15.60;7.77;;;;;;;;;;5075352;28;20410;-81
2023/10/21 02:56:03;;;;;;;14.27;7.20;;;;;;;;;;5075358;28;20471;-77
2023/10/21 02:58:29;;;;;;;14.80;7.93;;;;;;;;;;5075542;28;20404;-80
2023/10/21 03:00:55;;;;;;;14.80;8.10;;;;;;;;;;5075193;28;20474;-80
2023/10/21 03:03:21;;;;;;;16.50;8.97;;;;;;;;;;5075453;28;20413;-80
2023/10/21 03:05:47;;;;;;;14.60;8.83;;;;;;;;;;5075492;28;20926;-80
2023/10/21 03:08:13;;;;;;;17.40;8.23;;;;;;;;;;5075083;28;20404;-79
2023/10/21 03:10:39;;;;;;;21.17;8.03;;;;;;;;;;5075289;28;20478;-81
2023/10/21 03:13:05;;;;;;;14.70;8.50;;;;;;;;;;5075188;28;20409;-85
2023/10/21 03:15:33;;;;;;;15.40;9.07;;;;;;;;;;5075136;28;20452;-78
2023/10/21 03:17:59;;;;;;;20.07;9.63;;;;;;;;;;5075277;28;20917;-79
2023/10/21 03:20:25;;;;;;;20.60;8.70;;;;;;;;;;5075093;28;20455;-76
2023/10/21 03:22:51;;;;;;;23.13;9.10;;;;;;;;;;5073616;28;20419;-75
2023/10/21 03:25:17;;;;;;;17.07;8.07;;;;;;;;;;5075252;28;20852;-80
2023/10/21 03:27:43;;;;;;;13.50;8.30;;;;;;;;;;5075080;28;20413;-81
2023/10/21 03:30:09;;;;;;;16.90;9.10;;;;;;;;;;5075081;28;20407;-81
2023/10/21 03:32:36;;;;;;;19.30;9.63;;;;;;;;;;5075081;28;20762;-79
2023/10/21 03:35:02;;;;;;;16.70;7.53;;;;;;;;;;5074633;28;20404;-80
2023/10/21 03:37:27;;;;;;;17.33;7.57;;;;;;;;;;5074611;28;20547;-80
2023/10/21 03:39:53;;;;;;;20.20;8.93;;;;;;;;;;5074805;28;20422;-79
2023/10/21 03:42:21;;;;;;;20.67;9.53;;;;;;;;;;5074849;28;20550;-75
2023/10/21 03:44:46;;;;;;;26.63;8.03;;;;;;;;;;5074815;28;20413;-80
2023/10/21 03:47:12;;;;;;;19.33;10.23;;;;;;;;;;5074611;28;20963;-80
2023/10/21 03:49:38;;;;;;;19.57;8.20;;;;;;;;;;5073990;28;20171;-77
2023/10/21 03:52:04;;;;;;;16.00;9.50;;;;;;;;;;5074310;28;20827;-78
2023/10/21 03:54:30;;;;;;;22.20;8.70;;;;;;;;;;5074574;28;20443;-86
2023/10/21 03:56:56;;;;;;;23.63;9.50;;;;;;;;;;5074520;28;20500;-80
2023/10/21 03:59:22;;;;;;;18.17;8.03;;;;;;;;;;5074494;28;20405;-79
2023/10/21 04:01:48;;;;;;;12.40;7.57;;;;;;;;;;5074538;28;20450;-85
2023/10/21 04:04:14;;;;;;;13.87;7.77;;;;;;;;;;5074449;28;20510;-76
2023/10/21 04:06:40;;;;;;;17.03;7.67;;;;;;;;;;5074044;28;20499;-78
2023/10/21 04:09:07;;;;;;;12.10;7.57;;;;;;;;;;5056461;28;20419;-82
2023/10/21 04:11:33;;;;;;;15.87;8.67;;;;;;;;;;5074312;28;20537;-81
2023/10/21 04:13:59;;;;;;;17.13;9.40;;;;;;;;;;5074209;28;20768;-78
2023/10/21 04:16:25;;;;;;;18.00;9.17;;;;;;;;;;5074058;28;20886;-79
2023/10/21 04:18:51;;;;;;;16.07;7.60;;;;;;;;;;5056241;28;20414;-79
2023/10/21 04:21:17;;;;;;;15.77;7.60;;;;;;;;;;5073720;28;20536;-79
2023/10/21 04:23:43;;;;;;;16.80;8.60;;;;;;;;;;5073940;28;20417;-80
2023/10/21 04:26:09;;;;;;;32.43;10.93;;;;;;;;;;5073954;28;20784;-77
2023/10/21 04:28:35;;;;;;;21.43;10.20;;;;;;;;;;5073933;28;20421;-78
2023/10/21 04:31:01;;;;;;;17.30;9.00;;;;;;;;;;5073925;28;20425;-79
2023/10/21 04:33:27;;;;;;;17.67;8.53;;;;;;;;;;5073811;28;20440;-79
2023/10/21 04:35:53;;;;;;;17.47;8.93;;;;;;;;;;5073616;28;20542;-80
2023/10/21 04:38:19;;;;;;;23.73;8.93;;;;;;;;;;5073354;28;20850;-78
2023/10/21 04:40:45;;;;;;;20.20;9.07;;;;;;;;;;5073756;28;20405;-76
2023/10/21 04:43:11;;;;;;;15.77;7.60;;;;;;;;;;5073749;28;20476;-76
2023/10/21 04:45:37;;;;;;;20.40;8.67;;;;;;;;;;5073664;28;20409;-76
2023/10/21 04:48:03;;;;;;;15.90;8.97;;;;;;;;;;5073436;28;20810;-77
2023/10/21 04:50:29;;;;;;;13.73;7.60;;;;;;;;;;5073535;28;20404;-76
2023/10/21 04:52:55;;;;;;;14.47;9.60;;;;;;;;;;5073171;28;20407;-75
2023/10/21 04:55:21;;;;;;;17.90;8.30;;;;;;;;;;5073446;28;20492;-77
2023/10/21 04:57:47;;;;;;;18.83;10.27;;;;;;;;;;5073454;28;20408;-77
2023/10/21 05:00:14;;;;;;;16.17;8.50;;;;;;;;;;5073389;28;20434;-76
2023/10/21 05:02:40;;;;;;;15.60;7.97;;;;;;;;;;5072468;28;20458;-77
2023/10/21 05:05:07;;;;;;;12.03;7.97;;;;;;;;;;5073299;28;20410;-76
2023/10/21 05:07:33;;;;;;;16.00;8.70;;;;;;;;;;5072978;28;20770;-76
2023/10/21 05:09:59;;;;;;;22.40;8.30;;;;;;;;;;5072892;28;20431;-76
2023/10/21 05:12:25;;;;;;;15.10;8.63;;;;;;;;;;5072798;28;20509;-76
2023/10/21 05:14:51;;;;;;;16.70;9.33;;;;;;;;;;5072737;28;20444;-76
2023/10/21 05:17:17;;;;;;;14.97;9.33;;;;;;;;;;5073237;28;20452;-76
2023/10/21 05:19:43;;;;;;;18.27;8.93;;;;;;;;;;5073062;28;20408;-75
2023/10/21 05:22:09;;;;;;;14.03;8.23;;;;;;;;;;5072822;28;20758;-77
2023/10/21 05:24:35;;;;;;;16.60;9.43;;;;;;;;;;5072983;28;20460;-76
2023/10/21 05:27:01;;;;;;;14.67;9.03;;;;;;;;;;5073073;28;20659;-76
2023/10/21 05:29:27;;;;;;;16.23;8.50;;;;;;;;;;5072790;28;20409;-76
2023/10/21 05:31:53;;;;;;;14.57;8.47;;;;;;;;;;5073031;28;20418;-76
2023/10/21 05:34:19;;;;;;;13.37;7.97;;;;;;;;;;5072911;28;20421;-75
2023/10/21 05:36:45;;;;;;;17.87;9.77;;;;;;;;;;5072523;28;20555;-75
2023/10/21 05:39:12;;;;;;;21.87;9.10;;;;;;;;;;5072969;28;20415;-80
2023/10/21 05:41:38;;;;;;;20.03;8.80;;;;;;;;;;5072851;28;20763;-81
2023/10/21 05:44:04;;;;;;;13.40;8.70;;;;;;;;;;5072950;28;20417;-79
2023/10/21 05:46:30;;;;;;;13.63;8.90;;;;;;;;;;5072741;28;20892;-80
2023/10/21 05:48:56;;;;;;;17.20;8.50;;;;;;;;;;5072824;28;20420;-80
2023/10/21 05:51:22;;;;;;;13.60;9.30;;;;;;;;;;5072557;28;20176;-79
2023/10/21 05:53:47;;;;;;;17.23;8.77;;;;;;;;;;5071529;28;20409;-79
2023/10/21 05:56:15;;;;;;;17.87;9.70;;;;;;;;;;5072751;28;21104;-78
2023/10/21 05:58:42;;;;;;;19.97;10.07;;;;;;;;;;5072834;28;20888;-79
2023/10/21 06:01:08;;;;;;;19.23;9.43;;;;;;;;;;5072709;28;20831;-79
2023/10/21 06:03:39;;;;;;;15.87;8.13;;;;;;;;;;5072644;28;20421;-77
2023/10/21 06:06:05;;;;;;;18.33;10.33;;;;;;;;;;5072409;28;20449;-79
2023/10/21 06:08:31;;;;;;;14.23;8.23;;;;;;;;;;5072656;28;20462;-79
2023/10/21 06:10:57;;;;;;;16.83;10.27;;;;;;;;;;5072662;28;20412;-79
2023/10/21 06:13:24;;;;;;;16.30;10.10;;;;;;;;;;5056129;28;20921;-78
2023/10/21 06:15:51;;;;;;;12.13;8.87;;;;;;;;;;5076433;28;20617;-80
2023/10/21 06:18:17;;;;;;;16.37;8.70;;;;;;;;;;5076468;28;20557;-80
2023/10/21 06:20:46;;;;;;;16.17;9.87;;;;;;;;;;5076394;28;20451;-79
2023/10/21 06:23:12;;;;;;;14.20;8.57;;;;;;;;;;5076393;28;20409;-78
2023/10/21 06:25:38;;;;;;;15.97;9.53;;;;;;;;;;5076280;28;20436;-80
2023/10/21 06:28:04;;;;;;;11.83;7.50;;;;;;;;;;5076229;28;20417;-76
2023/10/21 06:30:30;;;;;;;13.80;8.60;;;;;;;;;;5076184;28;20413;-80
2023/10/21 06:32:57;;;;;;;11.33;7.47;;;;;;;;;;5076212;28;20500;-81
2023/10/21 06:35:23;;;;;;;15.03;9.27;;;;;;;;;;5076096;28;20249;-81
2023/10/21 06:37:49;;;;;;;14.00;9.53;;;;;;;;;;5075741;28;20889;-80
2023/10/21 06:40:15;;;;;;;14.67;10.40;;;;;;;;;;5076074;28;20414;-79
2023/10/21 06:42:41;;;;;;;12.07;8.77;;;;;;;;;;5075994;28;20470;-77
2023/10/21 06:45:08;;;;;;;17.23;9.70;;;;;;;;;;5075856;28;20804;-80
2023/10/21 06:47:34;;;;;;;17.60;9.07;;;;;;;;;;5075784;28;20475;-79
2023/10/21 06:50:00;;;;;;;18.13;10.70;;;;;;;;;;5075900;28;20417;-80
2023/10/21 06:52:26;;;;;;;15.83;9.40;;;;;;;;;;5075465;28;20908;-79
2023/10/21 06:54:53;;;;;;;13.57;8.80;;;;;;;;;;5075733;28;20174;-79
2023/10/21 06:57:22;;;;;;;16.33;9.00;;;;;;;;;;5075652;28;20465;-82
2023/10/21 06:59:49;;;;;;;13.57;7.70;;;;;;;;;;5067362;28;20426;-82
2023/10/21 07:02:17;;;;;;;16.43;8.40;;;;;;;;;;5069696;28;20947;-81
2023/10/21 07:04:43;;;;;;;14.57;8.53;;;;;;;;;;5075179;28;20399;-80
2023/10/21 07:07:10;;;;;;;14.80;9.00;;;;;;;;;;5074698;28;20457;-81
2023/10/21 07:09:37;;;;;;;13.20;8.10;;;;;;;;;;5075075;28;20397;-81
2023/10/21 07:12:03;;;;;;;12.83;7.83;;;;;;;;;;5075022;28;20397;-76
2023/10/21 07:14:29;;;;;;;13.20;8.50;;;;;;;;;;5074934;28;20811;-77
2023/10/21 07:16:55;;;;;;;13.13;8.30;;;;;;;;;;5074570;28;20511;-81
2023/10/21 07:19:22;;;;;;;11.83;7.37;;;;;;;;;;5074938;28;20175;-80
2023/10/21 07:21:48;;;;;;;13.05;9.20;;;;;;;;;;5071697;28;20418;-79
2023/10/21 07:24:14;;;;;;;9.53;7.37;;;;;;;;;;5073909;28;20206;-81
2023/10/21 07:26:40;;;;;;;8.63;6.60;;;;;;;;;;5074362;28;20418;-78
2023/10/21 07:29:09;;;;;;;10.33;6.47;;;;;;;;;;5074342;28;20410;-76
2023/10/21 07:31:35;;;;;;;8.20;5.80;;;;;;;;;;5074568;28;20414;-81
2023/10/21 07:34:01;;;;;;;7.53;4.70;;;;;;;;;;5056668;28;20425;-78
2023/10/21 07:36:27;;;;;;;9.87;6.47;;;;;;;;;;5073958;28;20468;-81
2023/10/21 07:38:53;;;;;;;9.50;6.03;;;;;;;;;;5073808;28;21505;-82
2023/10/21 07:41:19;;;;;;;7.17;4.70;;;;;;;;;;5074242;28;20647;-81
2023/10/21 07:43:46;;;;;;;8.10;5.10;;;;;;;;;;5074443;28;20399;-83
2023/10/21 07:46:12;;;;;;;7.90;5.00;;;;;;;;;;5055355;28;20431;-77
2023/10/21 07:48:39;;;;;;;7.97;5.30;;;;;;;;;;5053908;28;20461;-80
2023/10/21 07:51:05;;;;;;;8.20;4.43;;;;;;;;;;5054024;28;20423;-81
2023/10/21 07:53:31;;;;;;;8.70;5.57;;;;;;;;;;5070604;28;20503;-84
2023/10/21 07:55:57;;;;;;;7.70;5.37;;;;;;;;;;5074086;28;20975;-82
2023/10/21 07:58:24;;;;;;;8.43;5.53;;;;;;;;;;5073963;28;20907;-80
2023/10/21 08:00:51;;;;;;;8.67;4.30;;;;;;;;;;5074167;28;20449;-81
2023/10/21 08:03:17;;;;;;;8.23;6.00;;;;;;;;;;5074078;28;20455;-81
2023/10/21 08:05:43;;;;;;;9.97;5.90;;;;;;;;;;5073751;28;20727;-81
2023/10/21 08:08:10;;;;;;;10.50;6.40;;;;;;;;;;5074146;28;20820;-81
2023/10/21 08:10:36;;;;;;;9.37;5.43;;;;;;;;;;5072204;28;20884;-80
2023/10/21 08:13:02;;;;;;;10.73;7.10;;;;;;;;;;5073408;28;20432;-80
2023/10/21 08:15:29;;;;;;;8.27;4.63;;;;;;;;;;5073914;28;20498;-81
2023/10/21 08:17:55;;;;;;;8.93;5.97;;;;;;;;;;5072873;28;20409;-81
2023/10/21 08:20:21;;;;;;;7.70;5.50;;;;;;;;;;5073057;28;20487;-81
2023/10/21 08:22:47;;;;;;;7.73;5.17;;;;;;;;;;5073415;28;20856;-82
2023/10/21 08:25:13;;;;;;;9.30;5.43;;;;;;;;;;5073797;28;20449;-81
2023/10/21 08:27:39;;;;;;;8.30;4.90;;;;;;;;;;5073871;28;20411;-76
2023/10/21 08:30:09;;;;;;;8.73;5.27;;;;;;;;;;5073789;28;20465;-77
2023/10/21 08:32:35;;;;;;;7.63;4.87;;;;;;;;;;5073820;28;20418;-79
2023/10/21 08:35:01;;;;;;;9.40;5.47;;;;;;;;;;5073617;28;20849;-76
2023/10/21 08:37:27;;;;;;;9.40;5.13;;;;;;;;;;5073087;28;20415;-75
2023/10/21 08:39:53;;;;;;;7.97;5.70;;;;;;;;;;5073655;28;20408;-77
2023/10/21 08:42:19;;;;;;;7.73;5.17;;;;;;;;;;5073545;28;20776;-75
2023/10/21 08:44:49;;;;;;;5.27;4.47;;;;;;;;;;5072350;28;20424;-77
2023/10/21 08:47:16;;;;;;;5.60;3.80;;;;;;;;;;5073273;28;20468;-77
2023/10/21 08:49:45;;;;;;;7.23;4.27;;;;;;;;;;5073518;28;20773;-77
2023/10/21 08:52:13;;;;;;;6.07;3.53;;;;;;;;;;5073223;28;20419;-75
2023/10/21 08:54:42;;;;;;;4.97;3.33;;;;;;;;;;5073425;28;20414;-80
2023/10/21 08:57:09;;;;;;;5.63;3.50;;;;;;;;;;5067078;28;20496;-76
2023/10/21 08:59:36;;;;;;;5.37;3.13;;;;;;;;;;5064745;28;20413;-75
2023/10/21 09:02:02;;;;;;;5.00;3.27;;;;;;;;;;5061895;28;20506;-75
2023/10/21 09:04:28;;;;;;;6.43;3.97;;;;;;;;;;5062710;28;20412;-75
2023/10/21 09:06:59;;;;;;;3.63;2.50;;;;;;;;;;5063204;28;20409;-75
2023/10/21 09:09:26;;;;;;;5.47;4.20;;;;;;;;;;5063707;28;20413;-80
2023/10/21 09:12:05;;;;;;;5.20;3.70;;;;;;;;;;5055827;28;20754;-81
2023/10/21 09:14:31;;;;;;;7.60;3.50;;;;;;;;;;5053039;28;20468;-81
2023/10/21 09:16:57;;;;;;;5.03;3.87;;;;;;;;;;5052923;28;20475;-81
2023/10/21 09:19:29;;;;;;;5.93;3.50;;;;;;;;;;5053048;28;20768;-79
2023/10/21 09:21:55;;;;;;;6.13;4.70;;;;;;;;;;5052611;28;20775;-81
2023/10/21 09:24:24;;;;;;;6.10;4.83;;;;;;;;;;5052899;28;20412;-74
2023/10/21 09:26:50;;;;;;;6.53;4.57;;;;;;;;;;5052791;28;20446;-82
2023/10/21 09:29:22;;;;;;;10.23;5.47;;;;;;;;;;5052868;28;20422;-82
2023/10/21 09:31:49;;;;;;;9.90;6.03;;;;;;;;;;5052974;28;20541;-81
2023/10/21 09:34:25;;;;;;;8.00;5.30;;;;;;;;;;5052802;28;20833;-80
2023/10/21 09:36:55;;;;;;;9.50;6.23;;;;;;;;;;5060933;28;20475;-80
2023/10/21 09:39:21;;;;;;;9.60;6.00;;;;;;;;;;5052598;28;20469;-80
2023/10/21 09:41:48;;;;;;;8.17;5.80;;;;;;;;;;5069401;28;20468;-81
2023/10/21 09:44:15;;;;;;;10.73;7.80;;;;;;;;;;5072468;28;20542;-82
2023/10/21 09:46:43;;;;;;;17.27;12.90;;;;;;;;;;5072101;28;20481;-82
2023/10/21 09:49:10;;;;;;;9.20;6.90;;;;;;;;;;5075403;28;20422;-80
2023/10/21 09:51:39;;;;;;;18.03;13.80;;;;;;;;;;5076184;28;20433;-81
2023/10/21 09:54:09;;;;;;;17.80;14.77;;;;;;;;;;5076449;28;20799;-82
2023/10/21 09:56:36;;;;;;;14.60;12.00;;;;;;;;;;5076435;28;20993;-81
2023/10/21 09:59:02;;;;;;;13.07;9.40;;;;;;;;;;5076410;28;20414;-83
2023/10/21 10:01:28;;;;;;;12.90;10.40;;;;;;;;;;5076510;28;20404;-76
2023/10/21 10:03:55;;;;;;;19.57;14.87;;;;;;;;;;5076484;28;20569;-77
2023/10/21 10:06:22;;;;;;;13.70;10.43;;;;;;;;;;5075334;28;20418;-81
2023/10/21 10:08:48;;;;;;;14.23;11.10;;;;;;;;;;5076574;28;20411;-82
2023/10/21 10:11:18;;;;;;;16.70;11.50;;;;;;;;;;5076576;28;20407;-76
2023/10/21 10:13:46;;;;;;;15.50;9.97;;;;;;;;;;5076580;28;20412;-76
2023/10/21 10:16:19;;;;;;;11.93;10.43;;;;;;;;;;5076570;28;20467;-82
2023/10/21 10:18:50;;;;;;;13.07;9.40;;;;;;;;;;5076165;28;20919;-82
2023/10/21 10:21:16;;;;;;;15.63;11.10;;;;;;;;;;5076020;28;20410;-82
2023/10/21 10:23:48;;;;;;;19.67;13.53;;;;;;;;;;5074729;28;20403;-81
2023/10/21 10:26:37;;;;;;;15.57;10.53;;;;;;;;;;5073708;28;20795;-76
2023/10/21 10:29:19;;;;;;;15.23;12.23;;;;;;;;;;5067351;28;20434;-76
2023/10/21 10:31:45;;;;;;;14.83;10.87;;;;;;;;;;5056133;28;20415;-76
2023/10/21 10:34:11;;;;;;;14.50;11.40;;;;;;;;;;5059710;28;20513;-75
2023/10/21 10:36:37;;;;;;;16.27;13.40;;;;;;;;;;5075657;28;20609;-78
2023/10/21 10:39:04;;;;;;;12.80;9.63;;;;;;;;;;5058036;28;20919;-77
2023/10/21 10:41:30;;;;;;;13.83;10.60;;;;;;;;;;5075957;28;20465;-74
2023/10/21 10:44:01;;;;;;;13.37;9.10;;;;;;;;;;5075903;28;20419;-76
2023/10/21 10:46:28;;;;;;;13.37;8.80;;;;;;;;;;5075654;28;20428;-80
2023/10/21 10:48:54;;;;;;;13.63;10.10;;;;;;;;;;5074716;28;20834;-77
2023/10/21 10:51:27;;;;;;;14.07;10.07;;;;;;;;;;5075419;28;20451;-76
2023/10/21 10:53:57;;;;;;;13.40;8.57;;;;;;;;;;5075768;28;20418;-74
2023/10/21 10:56:25;;;;;;;13.83;9.37;;;;;;;;;;5075701;28;20474;-76
2023/10/21 10:58:52;;;;;;;12.63;8.60;;;;;;;;;;5075595;28;20811;-82
2023/10/21 11:01:25;;;;;;;14.93;8.60;;;;;;;;;;5075601;28;20919;-82
2023/10/21 11:03:58;;;;;;;16.50;9.57;;;;;;;;;;5057663;28;20426;-82
2023/10/21 11:06:26;;;;;;;13.27;9.67;;;;;;;;;;5075236;28;20926;-81
2023/10/21 11:08:52;;;;;;;15.10;11.00;;;;;;;;;;5075615;28;20800;-81
2023/10/21 11:11:18;;;;;;;17.40;11.93;;;;;;;;;;5075365;28;20423;-81
2023/10/21 11:13:45;;;;;;;19.30;11.77;;;;;;;;;;5056614;28;20431;-82
2023/10/21 11:16:11;;;;;;;16.43;10.80;;;;;;;;;;5075329;28;20219;-84
2023/10/21 11:18:37;;;;;;;16.40;11.27;;;;;;;;;;5075330;28;20453;-84
2023/10/21 11:21:04;;;;;;;15.00;10.43;;;;;;;;;;5074878;28;20420;-75
2023/10/21 11:23:30;;;;;;;15.80;10.23;;;;;;;;;;5072431;28;20426;-82
2023/10/21 11:25:58;;;;;;;16.83;10.23;;;;;;;;;;5066724;28;20437;-83
2023/10/21 11:28:27;;;;;;;14.80;10.27;;;;;;;;;;5046581;28;20812;-83
2023/10/21 11:30:54;;;;;;;14.10;9.10;;;;;;;;;;5065517;28;20409;-83
2023/10/21 11:33:20;;;;;;;12.00;9.70;;;;;;;;;;5064235;28;20737;-83
2023/10/21 11:35:47;;;;;;;12.97;8.77;;;;;;;;;;5045601;28;20982;-84
2023/10/21 11:38:13;;;;;;;17.37;10.33;;;;;;;;;;5064597;28;20465;-83
2023/10/21 11:40:39;;;;;;;13.13;9.03;;;;;;;;;;5053416;28;20422;-81
2023/10/21 11:43:11;;;;;;;13.47;9.93;;;;;;;;;;5055201;28;20536;-82
2023/10/21 11:45:38;;;;;;;13.20;10.40;;;;;;;;;;5060506;28;20461;-81
2023/10/21 11:48:08;;;;;;;14.83;10.10;;;;;;;;;;5059752;28;20557;-82
2023/10/21 11:50:35;;;;;;;11.80;8.80;;;;;;;;;;5060989;28;20942;-84
2023/10/21 11:53:05;;;;;;;11.40;9.80;;;;;;;;;;5060528;28;20845;-83
2023/10/21 11:59:30;;;;;;;13.30;9.50;;;;;;;;;;5062006;28;20438;-84
2023/10/21 12:15:45;;;;;;;14.07;11.47;;;;;;;;;;5005779;28;20433;-81
2023/10/21 12:18:33;;;;;;;15.43;10.57;;;;;;;;;;5060934;28;21134;-82
2023/10/21 12:29:53;;;;;;;9.07;6.87;;;;;;;;;;5059987;28;20437;-85
2023/10/21 12:35:25;;;;;;;9.77;7.67;;;;;;;;;;5060263;28;20942;-79
2023/10/21 12:42:50;;;;;;;5.70;4.70;;;;;;;;;;5059030;28;20460;-82
2023/10/21 12:45:19;;;;;;;6.67;5.30;;;;;;;;;;5059902;28;20919;-81
2023/10/21 12:47:48;;;;;;;6.57;5.30;;;;;;;;;;5058167;28;20471;-79
2023/10/21 12:50:14;;;;;;;7.60;6.10;;;;;;;;;;5059489;28;20438;-76
2023/10/21 12:52:40;;;;;;;9.13;8.23;;;;;;;;;;5057182;28;20441;-82
2023/10/21 12:55:10;;;;;;;11.30;8.70;;;;;;;;;;5058654;28;20435;-78
2023/10/21 12:57:36;;;;;;;14.20;12.00;;;;;;;;;;5059701;28;20192;-80
2023/10/21 13:00:05;;;;;;;9.37;7.67;;;;;;;;;;5059952;28;20435;-83
2023/10/21 13:02:40;;;;;;;11.20;7.87;;;;;;;;;;5059378;28;20434;-85
2023/10/21 13:05:07;;;;;;;10.93;8.97;;;;;;;;;;5058034;28;20430;-80
2023/10/21 13:07:33;;;;;;;11.17;7.30;;;;;;;;;;5059413;28;20534;-84
2023/10/21 13:10:00;;;;;;;7.70;6.47;;;;;;;;;;5059108;28;20550;-79
2023/10/21 13:12:26;;;;;;;13.27;9.00;;;;;;;;;;5058812;28;20450;-81
2023/10/21 13:14:54;;;;;;;6.90;6.00;;;;;;;;;;5059747;28;20939;-81
2023/10/21 13:17:22;;;;;;;9.70;7.20;;;;;;;;;;5059360;28;20474;-82
2023/10/21 13:19:48;;;;;;;9.03;6.73;;;;;;;;;;5058171;28;20518;-83
2023/10/21 13:22:14;;;;;;;9.77;7.77;;;;;;;;;;5058580;28;20538;-76
2023/10/21 13:24:40;;;;;;;13.93;11.03;;;;;;;;;;5058955;28;20467;-84
2023/10/21 13:27:06;;;;;;;17.13;12.37;;;;;;;;;;5059391;28;20467;-82
2023/10/21 13:29:32;;;;;;;15.07;11.80;;;;;;;;;;5059566;28;20236;-81
2023/10/21 13:31:59;;;;;;;8.40;6.37;;;;;;;;;;5058973;28;20454;-82
2023/10/21 13:34:25;;;;;;;10.23;7.87;;;;;;;;;;5058887;28;20440;-83
2023/10/21 13:36:51;;;;;;;9.30;8.07;;;;;;;;;;5058848;28;20889;-83
2023/10/21 13:39:20;;;;;;;13.10;10.37;;;;;;;;;;5057223;28;20173;-83
2023/10/21 13:41:47;;;;;;;16.20;12.10;;;;;;;;;;5059147;28;20538;-81
2023/10/21 13:44:13;;;;;;;11.43;9.30;;;;;;;;;;5059136;28;20444;-82
2023/10/21 13:46:39;;;;;;;10.10;9.00;;;;;;;;;;5058362;28;20420;-83
2023/10/21 13:49:09;;;;;;;8.47;7.40;;;;;;;;;;5059024;28;22176;-79
2023/10/21 13:51:35;;;;;;;10.60;7.23;;;;;;;;;;5059065;28;20436;-82
2023/10/21 13:54:01;;;;;;;8.60;7.60;;;;;;;;;;5058850;28;20794;-83
2023/10/21 13:56:29;;;;;;;8.67;7.50;;;;;;;;;;5058781;28;20525;-82
2023/10/21 13:58:55;;;;;;;10.27;6.13;;;;;;;;;;5058722;28;20426;-83
2023/10/21 14:01:22;;;;;;;7.63;6.33;;;;;;;;;;5058634;28;20191;-82
2023/10/21 14:03:48;;;;;;;9.37;7.37;;;;;;;;;;5058754;28;20534;-81
2023/10/21 14:06:14;;;;;;;11.30;8.00;;;;;;;;;;5058601;28;20521;-82
2023/10/21 14:08:40;;;;;;;10.20;7.80;;;;;;;;;;5056210;28;20968;-80
2023/10/21 14:11:08;;;;;;;10.83;7.73;;;;;;;;;;5058282;28;20177;-80
2023/10/21 14:13:34;;;;;;;9.33;6.83;;;;;;;;;;5055590;28;20184;-82
2023/10/21 14:16:09;;;;;;;7.87;6.90;;;;;;;;;;5058268;28;20481;-78
2023/10/21 14:18:35;;;;;;;9.10;7.00;;;;;;;;;;5058865;28;20434;-82
2023/10/21 14:21:01;;;;;;;9.00;6.80;;;;;;;;;;5058052;28;20447;-82
2023/10/21 14:23:28;;;;;;;8.57;6.80;;;;;;;;;;5058977;28;20944;-81
2023/10/21 14:25:54;;;;;;;8.40;6.90;;;;;;;;;;5058674;28;20440;-80
2023/10/21 14:28:20;;;;;;;8.10;6.43;;;;;;;;;;5059116;28;20635;-79
2023/10/21 14:30:48;;;;;;;10.53;8.20;;;;;;;;;;5060530;28;20469;-81
2023/10/21 14:33:18;;;;;;;8.97;7.07;;;;;;;;;;5061151;28;20440;-81
2023/10/21 14:35:44;;;;;;;7.47;6.20;;;;;;;;;;5060875;28;20811;-81
2023/10/21 14:38:11;;;;;;;9.83;7.87;;;;;;;;;;5060937;28;20445;-82
2023/10/21 14:40:38;;;;;;;6.70;5.67;;;;;;;;;;5060852;28;20508;-81
2023/10/21 14:43:04;;;;;;;6.60;5.10;;;;;;;;;;5061364;28;20803;-83
2023/10/21 14:45:31;;;;;;;7.10;6.40;;;;;;;;;;5058525;28;20427;-83
2023/10/21 14:47:58;;;;;;;9.03;7.73;;;;;;;;;;5058717;28;20563;-82
2023/10/21 14:50:27;;;;;;;8.57;7.00;;;;;;;;;;5061781;28;20435;-84
2023/10/21 14:52:53;;;;;;;8.43;6.80;;;;;;;;;;5062267;28;20431;-83
2023/10/21 14:55:19;;;;;;;8.67;6.97;;;;;;;;;;5061725;28;20436;-83
2023/10/21 14:57:45;;;;;;;9.40;7.30;;;;;;;;;;5062040;28;20185;-83
2023/10/21 15:00:15;;;;;;;9.33;6.90;;;;;;;;;;5061400;28;20839;-82
2023/10/21 15:02:43;;;;;;;11.23;7.97;;;;;;;;;;5061690;28;20471;-83
2023/10/21 15:05:09;;;;;;;10.80;7.90;;;;;;;;;;5060989;28;20883;-80
2023/10/21 15:07:35;;;;;;;13.03;8.70;;;;;;;;;;5061681;28;20503;-82